sensor_id;sensor_type;location;lat;lon;timestamp;pressure;altitude;pressure_sealevel;temperature;humidity
36980;BME280;22891;50.562;7.272;2023-02-28T11:03:01;102134.00;;;9.61;nan
36980;BME280;22891;50.562;7.272;2023-02-28T11:05:47;102134.00;;;8.42;nan
36980;BME280;22891;50.562;7.272;2023-02-28T11:08:16;102129.00;;;7.24;nan
36980;BME280;22891;50.562;7.272;2023-02-28T11:10:55;102120.00;;;8.36;nan
36980;BME280;22891;50.562;7.272;2023-02-28T11:13:27;102118.00;;;8.55;nan
36980;BME280;22891;50.562;7.272;2023-02-28T11:15:57;102108.00;;;8.62;nan
36980;BME280;22891;50.562;7.272;2023-02-28T11:18:51;102121.00;;;9.03;nan
36980;BME280;22891;50.562;7.272;2023-02-28T11:21:32;102128.00;;;10.17;nan
36980;BME280;22891;50.562;7.272;2023-02-28T11:24:27;102113.00;;;9.76;nan
36980;BME280;22891;50.562;7.272;2023-02-28T11:26:54;102116.00;;;10.03;nan
36980;BME280;22891;50.562;7.272;2023-02-28T11:29:26;102120.00;;;9.12;nan
36980;BME280;22891;50.562;7.272;2023-02-28T11:32:18;102113.00;;;7.55;nan
36980;BME280;22891;50.562;7.272;2023-02-28T11:34:45;102099.00;;;8.03;nan
36980;BME280;22891;50.562;7.272;2023-02-28T11:37:20;102102.00;;;8.78;nan
36980;BME280;22891;50.562;7.272;2023-02-28T11:39:47;102103.00;;;8.69;nan
36980;BME280;22891;50.562;7.272;2023-02-28T11:48:46;102110.00;;;7.75;nan
36980;BME280;22891;50.562;7.272;2023-02-28T11:51:27;102119.00;;;8.86;nan
36980;BME280;22891;50.562;7.272;2023-02-28T11:54:17;102098.00;;;8.08;nan
36980;BME280;22891;50.562;7.272;2023-02-28T11:56:57;102098.00;;;8.47;nan
36980;BME280;22891;50.562;7.272;2023-02-28T11:59:47;102091.00;;;7.95;nan
36980;BME280;22891;50.562;7.272;2023-02-28T12:02:53;102096.00;;;7.90;nan
36980;BME280;22891;50.562;7.272;2023-02-28T12:05:31;102121.00;;;7.82;nan
36980;BME280;22891;50.562;7.272;2023-02-28T12:09:33;102098.00;;;7.52;nan
36980;BME280;22891;50.562;7.272;2023-02-28T12:12:44;102095.00;;;7.94;nan
36980;BME280;22891;50.562;7.272;2023-02-28T12:22:31;102083.00;;;7.37;nan
36980;BME280;22891;50.562;7.272;2023-02-28T12:28:42;102080.00;;;7.71;nan
36980;BME280;22891;50.562;7.272;2023-02-28T12:31:24;102076.00;;;7.55;nan
36980;BME280;22891;50.562;7.272;2023-02-28T12:33:56;102088.00;;;8.29;nan
36980;BME280;22891;50.562;7.272;2023-02-28T12:36:25;102086.00;;;8.92;nan
36980;BME280;22891;50.562;7.272;2023-02-28T12:39:00;102072.00;;;7.75;nan
36980;BME280;22891;50.562;7.272;2023-02-28T12:41:54;102078.00;;;6.54;nan
36980;BME280;22891;50.562;7.272;2023-02-28T12:45:12;102075.00;;;6.55;nan
36980;BME280;22891;50.562;7.272;2023-02-28T12:47:40;102074.00;;;6.22;nan
36980;BME280;22891;50.562;7.272;2023-02-28T12:50:10;102074.00;;;5.46;nan
36980;BME280;22891;50.562;7.272;2023-02-28T12:52:59;102059.00;;;5.99;nan
36980;BME280;22891;50.562;7.272;2023-02-28T12:56:33;102087.00;;;6.87;nan
36980;BME280;22891;50.562;7.272;2023-02-28T12:59:23;102062.00;;;7.34;nan
36980;BME280;22891;50.562;7.272;2023-02-28T13:03:29;102063.00;;;7.10;nan
36980;BME280;22891;50.562;7.272;2023-02-28T13:10:04;102042.00;;;7.60;nan
36980;BME280;22891;50.562;7.272;2023-02-28T13:12:34;102060.00;;;8.45;nan
36980;BME280;22891;50.562;7.272;2023-02-28T13:15:25;102055.00;;;7.60;nan
36980;BME280;22891;50.562;7.272;2023-02-28T13:17:56;102048.00;;;7.72;nan
36980;BME280;22891;50.562;7.272;2023-02-28T13:20:34;102054.00;;;8.14;nan
36980;BME280;22891;50.562;7.272;2023-02-28T13:23:01;102039.00;;;8.26;nan
36980;BME280;22891;50.562;7.272;2023-02-28T13:26:09;102055.00;;;8.11;nan
36980;BME280;22891;50.562;7.272;2023-02-28T13:29:03;102046.00;;;7.90;nan
36980;BME280;22891;50.562;7.272;2023-02-28T13:31:30;102036.00;;;8.18;nan
36980;BME280;22891;50.562;7.272;2023-02-28T13:34:15;102036.00;;;7.62;nan
36980;BME280;22891;50.562;7.272;2023-02-28T13:36:41;102050.00;;;8.34;nan
36980;BME280;22891;50.562;7.272;2023-02-28T13:44:12;102051.00;;;8.27;nan
36980;BME280;22891;50.562;7.272;2023-02-28T13:49:19;102034.00;;;6.99;nan
36980;BME280;22891;50.562;7.272;2023-02-28T13:51:47;102040.00;;;8.02;nan
36980;BME280;22891;50.562;7.272;2023-02-28T13:54:50;102043.00;;;8.12;nan
36980;BME280;22891;50.562;7.272;2023-02-28T14:00:05;102054.00;;;8.04;nan
36980;BME280;22891;50.562;7.272;2023-02-28T14:03:00;102037.00;;;8.09;nan
36980;BME280;22891;50.562;7.272;2023-02-28T14:05:33;102035.00;;;6.99;nan
36980;BME280;22891;50.562;7.272;2023-02-28T14:08:05;102024.00;;;7.64;nan
36980;BME280;22891;50.562;7.272;2023-02-28T14:10:39;102021.00;;;7.47;nan
36980;BME280;22891;50.562;7.272;2023-02-28T14:13:37;102024.00;;;7.77;nan
36980;BME280;22891;50.562;7.272;2023-02-28T14:16:39;102018.00;;;7.47;nan
36980;BME280;22891;50.562;7.272;2023-02-28T14:19:16;102014.00;;;7.21;nan
36980;BME280;22891;50.562;7.272;2023-02-28T14:22:04;102017.00;;;7.07;nan
36980;BME280;22891;50.562;7.272;2023-02-28T14:35:53;102014.00;;;7.53;nan
36980;BME280;22891;50.562;7.272;2023-02-28T14:39:57;102009.00;;;6.90;nan
36980;BME280;22891;50.562;7.272;2023-02-28T14:42:33;102002.00;;;6.61;nan
36980;BME280;22891;50.562;7.272;2023-02-28T14:45:00;101994.00;;;6.22;nan
36980;BME280;22891;50.562;7.272;2023-02-28T14:47:33;101987.00;;;6.34;nan
36980;BME280;22891;50.562;7.272;2023-02-28T14:50:02;101989.00;;;6.13;nan
36980;BME280;22891;50.562;7.272;2023-02-28T14:52:31;101989.00;;;6.38;nan
36980;BME280;22891;50.562;7.272;2023-02-28T14:55:04;101986.00;;;6.14;nan
36980;BME280;22891;50.562;7.272;2023-02-28T14:57:34;101980.00;;;5.96;nan
36980;BME280;22891;50.562;7.272;2023-02-28T15:00:26;101982.00;;;6.15;nan
36980;BME280;22891;50.562;7.272;2023-02-28T15:02:54;101974.00;;;6.15;nan
36980;BME280;22891;50.562;7.272;2023-02-28T15:05:27;101984.00;;;5.88;nan
36980;BME280;22891;50.562;7.272;2023-02-28T15:11:38;101984.00;;;6.24;nan
36980;BME280;22891;50.562;7.272;2023-02-28T15:14:05;101982.00;;;6.20;nan
36980;BME280;22891;50.562;7.272;2023-02-28T15:16:41;101984.00;;;6.89;nan
36980;BME280;22891;50.562;7.272;2023-02-28T15:19:25;101983.00;;;6.75;nan
36980;BME280;22891;50.562;7.272;2023-02-28T15:22:05;101976.00;;;6.74;nan
36980;BME280;22891;50.562;7.272;2023-02-28T15:24:48;101978.00;;;5.77;nan
36980;BME280;22891;50.562;7.272;2023-02-28T15:27:29;101966.00;;;5.54;nan
36980;BME280;22891;50.562;7.272;2023-02-28T15:29:59;101973.00;;;5.54;nan
36980;BME280;22891;50.562;7.272;2023-02-28T15:32:38;101977.00;;;5.53;nan
36980;BME280;22891;50.562;7.272;2023-02-28T15:42:12;101971.00;;;5.53;nan
36980;BME280;22891;50.562;7.272;2023-02-28T15:44:38;101961.00;;;5.53;nan
36980;BME280;22891;50.562;7.272;2023-02-28T15:47:06;101975.00;;;5.52;nan
36980;BME280;22891;50.562;7.272;2023-02-28T15:49:39;101987.00;;;5.34;nan
36980;BME280;22891;50.562;7.272;2023-02-28T15:52:05;101976.00;;;5.25;nan
36980;BME280;22891;50.562;7.272;2023-02-28T15:54:34;101978.00;;;5.03;nan
36980;BME280;22891;50.562;7.272;2023-02-28T15:57:05;101978.00;;;4.89;nan
36980;BME280;22891;50.562;7.272;2023-02-28T15:59:35;101978.00;;;4.79;nan
36980;BME280;22891;50.562;7.272;2023-02-28T16:02:17;101966.00;;;4.79;nan
36980;BME280;22891;50.562;7.272;2023-02-28T16:05:21;101975.00;;;4.81;nan
36980;BME280;22891;50.562;7.272;2023-02-28T16:07:54;101981.00;;;4.81;nan
36980;BME280;22891;50.562;7.272;2023-02-28T16:10:21;101981.00;;;4.94;nan
36980;BME280;22891;50.562;7.272;2023-02-28T16:12:52;101984.00;;;5.05;nan
36980;BME280;22891;50.562;7.272;2023-02-28T16:15:27;101973.00;;;5.08;nan
36980;BME280;22891;50.562;7.272;2023-02-28T16:17:55;101982.00;;;5.03;nan
36980;BME280;22891;50.562;7.272;2023-02-28T16:20:30;101976.00;;;4.91;nan
36980;BME280;22891;50.562;7.272;2023-02-28T16:22:56;101971.00;;;4.84;nan
36980;BME280;22891;50.562;7.272;2023-02-28T16:25:40;101977.00;;;4.66;nan
36980;BME280;22891;50.562;7.272;2023-02-28T16:28:40;101981.00;;;4.63;nan
36980;BME280;22891;50.562;7.272;2023-02-28T16:31:07;101978.00;;;4.73;nan
36980;BME280;22891;50.562;7.272;2023-02-28T16:33:33;101984.00;;;4.52;nan
36980;BME280;22891;50.562;7.272;2023-02-28T16:36:00;101979.00;;;4.49;nan
36980;BME280;22891;50.562;7.272;2023-02-28T16:38:26;101990.00;;;4.57;nan
36980;BME280;22891;50.562;7.272;2023-02-28T16:40:55;101998.00;;;4.52;nan
36980;BME280;22891;50.562;7.272;2023-02-28T16:43:23;101990.00;;;4.46;nan
36980;BME280;22891;50.562;7.272;2023-02-28T16:45:57;101992.00;;;4.42;nan
36980;BME280;22891;50.562;7.272;2023-02-28T16:48:26;101987.00;;;4.39;nan
36980;BME280;22891;50.562;7.272;2023-02-28T16:50:52;101991.00;;;4.30;nan
36980;BME280;22891;50.562;7.272;2023-02-28T16:53:18;101998.00;;;4.24;nan
36980;BME280;22891;50.562;7.272;2023-02-28T16:55:45;101998.00;;;4.28;nan
36980;BME280;22891;50.562;7.272;2023-02-28T16:58:15;102009.00;;;4.33;nan
36980;BME280;22891;50.562;7.272;2023-02-28T17:00:41;102011.00;;;4.37;nan
36980;BME280;22891;50.562;7.272;2023-02-28T17:04:31;102010.00;;;4.26;nan
36980;BME280;22891;50.562;7.272;2023-02-28T17:06:58;102007.00;;;4.13;nan
36980;BME280;22891;50.562;7.272;2023-02-28T17:09:23;102003.00;;;4.08;nan
36980;BME280;22891;50.562;7.272;2023-02-28T17:11:51;102017.00;;;4.01;nan
36980;BME280;22891;50.562;7.272;2023-02-28T17:14:16;102021.00;;;4.03;nan
36980;BME280;22891;50.562;7.272;2023-02-28T17:16:43;102028.00;;;3.92;nan
36980;BME280;22891;50.562;7.272;2023-02-28T17:19:14;102034.00;;;3.82;nan
36980;BME280;22891;50.562;7.272;2023-02-28T17:21:42;102024.00;;;3.71;nan
36980;BME280;22891;50.562;7.272;2023-02-28T17:24:09;102028.00;;;3.75;nan
36980;BME280;22891;50.562;7.272;2023-02-28T17:26:39;102037.00;;;3.84;nan
36980;BME280;22891;50.562;7.272;2023-02-28T17:29:18;102037.00;;;3.85;nan
36980;BME280;22891;50.562;7.272;2023-02-28T17:31:53;102029.00;;;3.52;nan
36980;BME280;22891;50.562;7.272;2023-02-28T17:34:19;102036.00;;;3.43;nan
36980;BME280;22891;50.562;7.272;2023-02-28T17:36:46;102045.00;;;3.34;nan
36980;BME280;22891;50.562;7.272;2023-02-28T17:39:14;102042.00;;;3.23;nan
36980;BME280;22891;50.562;7.272;2023-02-28T17:41:45;102046.00;;;3.16;nan
36980;BME280;22891;50.562;7.272;2023-02-28T17:44:11;102045.00;;;3.07;nan
36980;BME280;22891;50.562;7.272;2023-02-28T17:46:37;102052.00;;;2.95;nan
36980;BME280;22891;50.562;7.272;2023-02-28T17:49:04;102055.00;;;2.99;nan
36980;BME280;22891;50.562;7.272;2023-02-28T17:51:30;102044.00;;;2.87;nan
36980;BME280;22891;50.562;7.272;2023-02-28T17:53:57;102058.00;;;2.71;nan
36980;BME280;22891;50.562;7.272;2023-02-28T17:56:24;102054.00;;;2.55;nan
36980;BME280;22891;50.562;7.272;2023-02-28T17:58:53;102053.00;;;2.41;nan
36980;BME280;22891;50.562;7.272;2023-02-28T18:01:20;102048.00;;;2.30;nan
36980;BME280;22891;50.562;7.272;2023-02-28T18:03:47;102049.00;;;2.17;nan
36980;BME280;22891;50.562;7.272;2023-02-28T18:06:19;102045.00;;;2.08;nan
36980;BME280;22891;50.562;7.272;2023-02-28T18:08:47;102039.00;;;2.03;nan
36980;BME280;22891;50.562;7.272;2023-02-28T18:11:14;102034.00;;;1.87;nan
36980;BME280;22891;50.562;7.272;2023-02-28T18:13:45;102033.00;;;1.83;nan
36980;BME280;22891;50.562;7.272;2023-02-28T18:16:11;102029.00;;;1.74;nan
36980;BME280;22891;50.562;7.272;2023-02-28T18:18:38;102038.00;;;1.61;nan
36980;BME280;22891;50.562;7.272;2023-02-28T18:21:06;102034.00;;;1.59;nan
36980;BME280;22891;50.562;7.272;2023-02-28T18:23:32;102033.00;;;1.58;nan
36980;BME280;22891;50.562;7.272;2023-02-28T18:25:59;102042.00;;;1.54;nan
36980;BME280;22891;50.562;7.272;2023-02-28T18:28:25;102043.00;;;1.46;nan
36980;BME280;22891;50.562;7.272;2023-02-28T18:30:52;102036.00;;;1.35;nan
36980;BME280;22891;50.562;7.272;2023-02-28T18:33:18;102037.00;;;1.24;nan
36980;BME280;22891;50.562;7.272;2023-02-28T18:35:44;102016.00;;;1.05;nan
36980;BME280;22891;50.562;7.272;2023-02-28T18:38:13;102038.00;;;1.21;nan
36980;BME280;22891;50.562;7.272;2023-02-28T18:40:41;102041.00;;;1.11;nan
36980;BME280;22891;50.562;7.272;2023-02-28T18:43:08;102044.00;;;1.14;nan
36980;BME280;22891;50.562;7.272;2023-02-28T18:45:35;102037.00;;;1.07;nan
36980;BME280;22891;50.562;7.272;2023-02-28T18:48:01;102039.00;;;0.96;nan
36980;BME280;22891;50.562;7.272;2023-02-28T18:50:27;102047.00;;;1.01;nan
36980;BME280;22891;50.562;7.272;2023-02-28T18:52:53;102034.00;;;1.04;nan
36980;BME280;22891;50.562;7.272;2023-02-28T18:55:19;102026.00;;;0.99;nan
36980;BME280;22891;50.562;7.272;2023-02-28T18:57:46;102044.00;;;0.85;nan
36980;BME280;22891;50.562;7.272;2023-02-28T19:00:13;102053.00;;;0.84;nan
36980;BME280;22891;50.562;7.272;2023-02-28T19:02:40;102057.00;;;0.79;nan
36980;BME280;22891;50.562;7.272;2023-02-28T19:05:07;102041.00;;;0.71;nan
36980;BME280;22891;50.562;7.272;2023-02-28T19:07:34;102031.00;;;0.51;nan
36980;BME280;22891;50.562;7.272;2023-02-28T19:10:00;102039.00;;;0.43;nan
36980;BME280;22891;50.562;7.272;2023-02-28T19:12:26;101904.00;;;0.51;nan
36980;BME280;22891;50.562;7.272;2023-02-28T19:14:52;102046.00;;;0.71;nan
36980;BME280;22891;50.562;7.272;2023-02-28T19:17:18;102043.00;;;0.63;nan
36980;BME280;22891;50.562;7.272;2023-02-28T19:19:44;102040.00;;;0.49;nan
36980;BME280;22891;50.562;7.272;2023-02-28T19:22:10;102047.00;;;0.26;nan
36980;BME280;22891;50.562;7.272;2023-02-28T19:24:36;102043.00;;;0.19;nan
36980;BME280;22891;50.562;7.272;2023-02-28T19:27:02;102034.00;;;0.03;nan
36980;BME280;22891;50.562;7.272;2023-02-28T19:29:27;102049.00;;;0.17;nan
36980;BME280;22891;50.562;7.272;2023-02-28T19:31:54;102040.00;;;0.06;nan
36980;BME280;22891;50.562;7.272;2023-02-28T19:34:19;102035.00;;;0.07;nan
36980;BME280;22891;50.562;7.272;2023-02-28T19:36:46;102024.00;;;-0.03;nan
36980;BME280;22891;50.562;7.272;2023-02-28T19:39:11;102026.00;;;-0.14;nan
36980;BME280;22891;50.562;7.272;2023-02-28T19:41:37;102014.00;;;-0.09;nan
36980;BME280;22891;50.562;7.272;2023-02-28T19:44:03;102022.00;;;-0.13;nan
36980;BME280;22891;50.562;7.272;2023-02-28T19:46:29;102017.00;;;-0.07;nan
36980;BME280;22891;50.562;7.272;2023-02-28T19:48:55;102017.00;;;-0.10;nan
36980;BME280;22891;50.562;7.272;2023-02-28T19:51:21;102019.00;;;-0.15;nan
36980;BME280;22891;50.562;7.272;2023-02-28T19:53:47;102013.00;;;-0.22;nan
36980;BME280;22891;50.562;7.272;2023-02-28T19:56:13;101993.00;;;-0.15;nan
36980;BME280;22891;50.562;7.272;2023-02-28T19:58:39;102012.00;;;-0.20;nan
36980;BME280;22891;50.562;7.272;2023-02-28T20:01:13;102019.00;;;-0.27;nan
36980;BME280;22891;50.562;7.272;2023-02-28T20:03:39;102023.00;;;-0.10;nan
36980;BME280;22891;50.562;7.272;2023-02-28T20:06:08;102035.00;;;0.04;nan
36980;BME280;22891;50.562;7.272;2023-02-28T20:08:36;102041.00;;;0.09;nan
36980;BME280;22891;50.562;7.272;2023-02-28T20:11:10;102042.00;;;-0.11;nan
36980;BME280;22891;50.562;7.272;2023-02-28T20:13:36;102028.00;;;-0.16;nan
36980;BME280;22891;50.562;7.272;2023-02-28T20:16:04;102038.00;;;-0.38;nan
36980;BME280;22891;50.562;7.272;2023-02-28T20:19:08;102036.00;;;-0.27;nan
36980;BME280;22891;50.562;7.272;2023-02-28T20:21:34;102029.00;;;-0.46;nan
36980;BME280;22891;50.562;7.272;2023-02-28T20:24:01;102028.00;;;-0.46;nan
36980;BME280;22891;50.562;7.272;2023-02-28T20:26:27;102006.00;;;-0.57;nan
36980;BME280;22891;50.562;7.272;2023-02-28T20:28:53;102010.00;;;-0.60;nan
36980;BME280;22891;50.562;7.272;2023-02-28T20:31:21;102007.00;;;-0.56;nan
36980;BME280;22891;50.562;7.272;2023-02-28T20:33:49;102008.00;;;-0.67;nan
36980;BME280;22891;50.562;7.272;2023-02-28T20:36:16;102009.00;;;-0.75;nan
36980;BME280;22891;50.562;7.272;2023-02-28T20:38:44;102016.00;;;-0.53;nan
36980;BME280;22891;50.562;7.272;2023-02-28T20:41:10;102008.00;;;-0.59;nan
36980;BME280;22891;50.562;7.272;2023-02-28T20:43:36;101990.00;;;-0.66;nan
36980;BME280;22891;50.562;7.272;2023-02-28T20:46:02;101997.00;;;-0.77;nan
36980;BME280;22891;50.562;7.272;2023-02-28T20:48:29;101999.00;;;-0.76;nan
36980;BME280;22891;50.562;7.272;2023-02-28T20:50:56;102000.00;;;-0.94;nan
36980;BME280;22891;50.562;7.272;2023-02-28T20:53:24;101995.00;;;-0.94;nan
36980;BME280;22891;50.562;7.272;2023-02-28T20:55:55;102001.00;;;-0.99;nan
36980;BME280;22891;50.562;7.272;2023-02-28T20:58:24;101987.00;;;-1.19;nan
36980;BME280;22891;50.562;7.272;2023-02-28T21:01:13;101982.00;;;-1.04;nan
36980;BME280;22891;50.562;7.272;2023-02-28T21:03:50;101991.00;;;-0.96;nan
36980;BME280;22891;50.562;7.272;2023-02-28T21:06:19;101964.00;;;-1.12;nan
36980;BME280;22891;50.562;7.272;2023-02-28T21:08:45;101960.00;;;-1.23;nan
36980;BME280;22891;50.562;7.272;2023-02-28T21:11:31;101952.00;;;-1.31;nan
36980;BME280;22891;50.562;7.272;2023-02-28T21:13:58;101932.00;;;-1.15;nan
36980;BME280;22891;50.562;7.272;2023-02-28T21:16:25;101939.00;;;-1.16;nan
36980;BME280;22891;50.562;7.272;2023-02-28T21:18:52;101946.00;;;-1.10;nan
36980;BME280;22891;50.562;7.272;2023-02-28T21:21:20;101944.00;;;-1.23;nan
36980;BME280;22891;50.562;7.272;2023-02-28T21:23:47;101946.00;;;-1.32;nan
36980;BME280;22891;50.562;7.272;2023-02-28T21:26:19;101927.00;;;-1.28;nan
36980;BME280;22891;50.562;7.272;2023-02-28T21:29:03;101917.00;;;-1.52;nan
36980;BME280;22891;50.562;7.272;2023-02-28T21:31:32;101905.00;;;-1.41;nan
36980;BME280;22891;50.562;7.272;2023-02-28T21:34:00;101908.00;;;-1.30;nan
36980;BME280;22891;50.562;7.272;2023-02-28T21:36:29;101910.00;;;-1.13;nan
36980;BME280;22891;50.562;7.272;2023-02-28T21:39:16;101900.00;;;-1.25;nan
36980;BME280;22891;50.562;7.272;2023-02-28T21:41:43;101905.00;;;-1.38;nan
36980;BME280;22891;50.562;7.272;2023-02-28T21:44:10;101908.00;;;-1.36;nan
36980;BME280;22891;50.562;7.272;2023-02-28T21:46:51;101911.00;;;-1.40;nan
36980;BME280;22891;50.562;7.272;2023-02-28T21:49:22;101900.00;;;-1.68;nan
36980;BME280;22891;50.562;7.272;2023-02-28T21:51:48;101888.00;;;-1.72;nan
36980;BME280;22891;50.562;7.272;2023-02-28T21:54:14;101898.00;;;-1.82;nan
36980;BME280;22891;50.562;7.272;2023-02-28T21:56:40;101885.00;;;-1.83;nan
36980;BME280;22891;50.562;7.272;2023-02-28T21:59:06;101866.00;;;-1.76;nan
36980;BME280;22891;50.562;7.272;2023-02-28T22:01:36;101873.00;;;-1.75;nan
36980;BME280;22891;50.562;7.272;2023-02-28T22:04:05;101868.00;;;-1.69;nan
36980;BME280;22891;50.562;7.272;2023-02-28T22:06:35;101888.00;;;-1.41;nan
36980;BME280;22891;50.562;7.272;2023-02-28T22:09:03;101876.00;;;-1.31;nan
36980;BME280;22891;50.562;7.272;2023-02-28T22:11:31;101874.00;;;-1.19;nan
36980;BME280;22891;50.562;7.272;2023-02-28T22:13:58;101877.00;;;-1.45;nan
36980;BME280;22891;50.562;7.272;2023-02-28T22:16:27;101869.00;;;-1.42;nan
36980;BME280;22891;50.562;7.272;2023-02-28T22:18:54;101880.00;;;-1.52;nan
36980;BME280;22891;50.562;7.272;2023-02-28T22:21:21;101858.00;;;-1.77;nan
36980;BME280;22891;50.562;7.272;2023-02-28T22:23:47;101863.00;;;-1.76;nan
36980;BME280;22891;50.562;7.272;2023-02-28T22:26:20;101865.00;;;-1.61;nan
36980;BME280;22891;50.562;7.272;2023-02-28T22:28:48;101879.00;;;-1.68;nan
36980;BME280;22891;50.562;7.272;2023-02-28T22:31:33;101872.00;;;-1.71;nan
36980;BME280;22891;50.562;7.272;2023-02-28T22:34:05;101871.00;;;-1.73;nan
36980;BME280;22891;50.562;7.272;2023-02-28T22:36:32;101860.00;;;-1.76;nan
36980;BME280;22891;50.562;7.272;2023-02-28T22:38:58;101863.00;;;-2.05;nan
36980;BME280;22891;50.562;7.272;2023-02-28T22:41:27;101866.00;;;-1.94;nan
36980;BME280;22891;50.562;7.272;2023-02-28T22:43:59;101870.00;;;-1.90;nan
36980;BME280;22891;50.562;7.272;2023-02-28T22:46:28;101841.00;;;-2.01;nan
36980;BME280;22891;50.562;7.272;2023-02-28T22:48:54;101833.00;;;-2.17;nan
36980;BME280;22891;50.562;7.272;2023-02-28T22:51:23;101841.00;;;-2.18;nan
36980;BME280;22891;50.562;7.272;2023-02-28T22:54:02;101834.00;;;-2.10;nan
36980;BME280;22891;50.562;7.272;2023-02-28T22:56:29;101836.00;;;-2.21;nan
36980;BME280;22891;50.562;7.272;2023-02-28T22:58:57;101835.00;;;-2.22;nan
36980;BME280;22891;50.562;7.272;2023-02-28T23:01:25;101829.00;;;-2.25;nan
36980;BME280;22891;50.562;7.272;2023-02-28T23:03:53;101827.00;;;-2.17;nan
36980;BME280;22891;50.562;7.272;2023-02-28T23:06:24;101810.00;;;-2.21;nan
36980;BME280;22891;50.562;7.272;2023-02-28T23:08:52;101814.00;;;-2.14;nan
36980;BME280;22891;50.562;7.272;2023-02-28T23:11:23;101813.00;;;-2.17;nan
36980;BME280;22891;50.562;7.272;2023-02-28T23:13:50;101819.00;;;-2.22;nan
36980;BME280;22891;50.562;7.272;2023-02-28T23:16:36;101817.00;;;-2.38;nan
36980;BME280;22891;50.562;7.272;2023-02-28T23:19:08;101789.00;;;-2.46;nan
36980;BME280;22891;50.562;7.272;2023-02-28T23:21:36;101772.00;;;-2.44;nan
36980;BME280;22891;50.562;7.272;2023-02-28T23:24:04;101777.00;;;-2.38;nan
36980;BME280;22891;50.562;7.272;2023-02-28T23:26:35;101759.00;;;-2.45;nan
36980;BME280;22891;50.562;7.272;2023-02-28T23:29:03;101747.00;;;-2.58;nan
36980;BME280;22891;50.562;7.272;2023-02-28T23:31:29;101748.00;;;-2.55;nan
36980;BME280;22891;50.562;7.272;2023-02-28T23:33:55;101743.00;;;-2.55;nan
36980;BME280;22891;50.562;7.272;2023-02-28T23:36:22;101750.00;;;-2.55;nan
36980;BME280;22891;50.562;7.272;2023-02-28T23:38:50;101730.00;;;-2.62;nan
36980;BME280;22891;50.562;7.272;2023-02-28T23:41:18;101729.00;;;-2.78;nan
36980;BME280;22891;50.562;7.272;2023-02-28T23:43:45;101725.00;;;-2.70;nan
36980;BME280;22891;50.562;7.272;2023-02-28T23:46:12;101731.00;;;-2.77;nan
36980;BME280;22891;50.562;7.272;2023-02-28T23:48:39;101745.00;;;-2.78;nan
36980;BME280;22891;50.562;7.272;2023-02-28T23:51:07;101756.00;;;-2.80;nan
36980;BME280;22891;50.562;7.272;2023-02-28T23:53:36;101744.00;;;-2.63;nan
36980;BME280;22891;50.562;7.272;2023-02-28T23:56:04;101754.00;;;-2.73;nan
36980;BME280;22891;50.562;7.272;2023-02-28T23:58:30;101747.00;;;-2.64;nan
